createdAt,value
2023-04-04T00:00:48.217Z,3.50
2023-04-04T00:03:14.737Z,3.40
2023-04-04T00:05:41.536Z,3.40
2023-04-04T00:08:08.008Z,3.40
2023-04-04T00:10:34.535Z,3.40
2023-04-04T00:13:01.300Z,3.40
2023-04-04T00:15:27.798Z,3.40
2023-04-04T00:17:54.350Z,3.40
2023-04-04T00:20:20.885Z,3.40
2023-04-04T00:22:47.387Z,3.30
2023-04-04T00:25:14.350Z,3.30
2023-04-04T00:27:40.875Z,3.30
2023-04-04T00:30:07.633Z,3.30
2023-04-04T00:32:34.213Z,3.30
2023-04-04T00:35:00.734Z,3.30
2023-04-04T00:37:27.913Z,3.30
2023-04-04T00:39:54.517Z,3.30
2023-04-04T00:42:21.129Z,3.30
2023-04-04T00:44:47.729Z,3.30
2023-04-04T00:47:14.702Z,3.20
2023-04-04T00:49:41.203Z,3.20
2023-04-04T00:52:08.027Z,3.20
2023-04-04T00:54:35.473Z,3.00
2023-04-04T00:57:03.700Z,3.00
2023-04-04T00:59:31.096Z,3.00
2023-04-04T01:01:58.005Z,3.00
2023-04-04T01:04:24.585Z,3.00
2023-04-04T01:06:51.561Z,2.90
2023-04-04T01:09:18.572Z,2.90
2023-04-04T01:11:45.091Z,2.90
2023-04-04T01:14:11.577Z,2.80
2023-04-04T01:16:38.610Z,2.80
2023-04-04T01:19:06.548Z,2.70
2023-04-04T01:21:33.830Z,2.80
2023-04-04T01:24:01.442Z,2.80
2023-04-04T01:26:28.180Z,2.80
2023-04-04T01:28:54.978Z,2.70
2023-04-04T01:31:26.035Z,2.70
2023-04-04T01:34:01.258Z,2.70
2023-04-04T01:36:49.378Z,2.70
2023-04-04T01:39:32.612Z,2.70
2023-04-04T01:41:59.854Z,2.60
2023-04-04T01:44:26.426Z,2.60
2023-04-04T01:46:56.352Z,2.70
2023-04-04T01:49:23.435Z,2.70
2023-04-04T01:51:53.475Z,2.60
2023-04-04T01:54:20.032Z,2.60
2023-04-04T01:56:46.526Z,2.50
2023-04-04T01:59:13.079Z,2.50
2023-04-04T02:01:39.625Z,2.40
2023-04-04T02:04:07.115Z,2.30
2023-04-04T02:06:33.842Z,2.30
2023-04-04T02:09:00.821Z,2.30
2023-04-04T02:11:27.524Z,2.30
2023-04-04T02:13:53.988Z,2.30
2023-04-04T02:16:21.162Z,2.30
2023-04-04T02:18:47.845Z,2.20
2023-04-04T02:21:14.536Z,2.20
2023-04-04T02:23:41.203Z,2.30
2023-04-04T02:26:07.757Z,2.30
2023-04-04T02:28:34.728Z,2.20
2023-04-04T02:31:04.733Z,2.10
2023-04-04T02:33:31.789Z,2.20
2023-04-04T02:36:01.419Z,2.20
2023-04-04T02:38:28.571Z,2.20
2023-04-04T02:40:55.315Z,2.20
2023-04-04T02:43:21.795Z,2.20
2023-04-04T02:45:48.956Z,2.30
2023-04-04T02:48:15.659Z,2.30
2023-04-04T02:50:42.479Z,2.30
2023-04-04T02:53:09.274Z,2.30
2023-04-04T02:55:36.066Z,2.20
2023-04-04T02:58:02.727Z,2.20
2023-04-04T03:00:29.257Z,2.20
2023-04-04T03:02:56.492Z,2.20
2023-04-04T03:05:23.807Z,2.10
2023-04-04T03:07:56.110Z,2.00
2023-04-04T03:10:23.420Z,2.00
2023-04-04T03:12:49.954Z,2.00
2023-04-04T03:15:16.471Z,2.10
2023-04-04T03:17:43.295Z,1.90
2023-04-04T03:20:10.184Z,1.90
2023-04-04T03:22:36.635Z,1.90
2023-04-04T03:25:03.655Z,1.90
2023-04-04T03:27:32.898Z,1.80
2023-04-04T03:29:59.352Z,1.80
2023-04-04T03:32:26.212Z,1.80
2023-04-04T03:34:52.766Z,1.80
2023-04-04T03:37:19.277Z,1.80
2023-04-04T03:39:45.741Z,1.80
2023-04-04T03:42:12.489Z,1.80
2023-04-04T03:44:42.200Z,1.80
2023-04-04T03:47:08.742Z,1.80
2023-04-04T03:49:35.274Z,1.70
2023-04-04T03:52:03.037Z,1.50
2023-04-04T03:54:29.537Z,1.50
2023-04-04T03:56:56.775Z,1.50
2023-04-04T03:59:23.480Z,1.60
2023-04-04T04:01:50.187Z,1.60
2023-04-04T04:04:16.695Z,1.60
2023-04-04T04:06:44.100Z,1.60
2023-04-04T04:09:13.644Z,1.70
2023-04-04T04:11:40.140Z,1.70
2023-04-04T04:14:06.841Z,1.60
2023-04-04T04:16:33.342Z,1.50
2023-04-04T04:19:00.154Z,1.50
2023-04-04T04:21:26.699Z,1.50
2023-04-04T04:23:53.243Z,1.50
2023-04-04T04:26:21.756Z,1.60
2023-04-04T04:28:48.448Z,1.40
2023-04-04T04:31:15.021Z,1.40
2023-04-04T04:33:41.626Z,1.40
2023-04-04T04:36:08.278Z,1.50
2023-04-04T04:38:34.846Z,1.50
2023-04-04T04:41:01.990Z,1.50
2023-04-04T04:43:28.573Z,1.50
2023-04-04T04:45:55.031Z,1.50
2023-04-04T04:48:21.690Z,1.60
2023-04-04T04:50:48.262Z,1.60
2023-04-04T04:53:14.734Z,1.60
2023-04-04T04:55:42.999Z,1.70
2023-04-04T04:58:10.736Z,1.70
2023-04-04T05:00:38.086Z,1.70
2023-04-04T05:03:07.021Z,1.70
2023-04-04T05:05:34.187Z,1.70
2023-04-04T05:08:01.270Z,1.60
2023-04-04T05:10:28.513Z,1.60
2023-04-04T05:12:55.076Z,1.70
2023-04-04T05:15:21.887Z,1.60
2023-04-04T05:17:48.656Z,1.60
2023-04-04T05:20:15.474Z,1.60
2023-04-04T05:22:45.099Z,1.50
2023-04-04T05:25:12.227Z,1.60
2023-04-04T05:27:40.353Z,1.60
2023-04-04T05:30:10.325Z,1.60
2023-04-04T05:32:36.875Z,1.70
2023-04-04T05:35:03.547Z,1.80
2023-04-04T05:37:30.500Z,1.90
2023-04-04T05:39:57.303Z,2.10
2023-04-04T05:42:23.751Z,2.30
2023-04-04T05:44:50.212Z,2.50
2023-04-04T05:47:16.941Z,2.70
2023-04-04T05:49:43.392Z,2.80
2023-04-04T05:52:10.652Z,3.10
2023-04-04T05:54:37.154Z,3.20
2023-04-04T05:57:03.610Z,3.30
2023-04-04T05:59:30.341Z,3.50
2023-04-04T06:01:57.424Z,3.70
2023-04-04T06:04:23.926Z,4.00
2023-04-04T06:06:50.546Z,3.90
2023-04-04T06:09:17.583Z,4.00
2023-04-04T06:11:44.130Z,4.20
2023-04-04T06:14:11.085Z,4.20
2023-04-04T06:16:38.090Z,3.90
2023-04-04T06:19:04.635Z,4.30
2023-04-04T06:21:31.168Z,4.40
2023-04-04T06:23:57.699Z,4.50
2023-04-04T06:26:24.289Z,4.90
2023-04-04T06:28:51.224Z,4.90
2023-04-04T06:31:18.168Z,5.00
2023-04-04T06:33:44.640Z,4.70
2023-04-04T06:36:11.245Z,4.60
2023-04-04T06:38:37.828Z,4.30
2023-04-04T06:41:04.322Z,4.00
2023-04-04T06:43:31.165Z,4.00
2023-04-04T06:45:57.892Z,3.80
2023-04-04T06:48:24.360Z,3.50
2023-04-04T06:50:51.181Z,3.20
2023-04-04T06:53:17.714Z,3.10
2023-04-04T06:55:44.258Z,3.10
2023-04-04T06:58:11.076Z,3.10
2023-04-04T07:00:37.953Z,3.10
2023-04-04T07:03:04.823Z,3.10
2023-04-04T07:05:32.111Z,3.10
2023-04-04T07:07:58.696Z,3.30
2023-04-04T07:10:25.922Z,3.40
2023-04-04T07:12:52.390Z,3.50
2023-04-04T07:15:18.951Z,3.60
2023-04-04T07:17:45.427Z,3.70
2023-04-04T07:20:12.126Z,3.60
2023-04-04T07:22:39.637Z,3.70
2023-04-04T07:25:07.005Z,3.60
2023-04-04T07:27:33.537Z,3.50
2023-04-04T07:30:00.086Z,3.50
2023-04-04T07:32:26.649Z,3.30
2023-04-04T07:34:53.509Z,3.40
2023-04-04T07:37:20.040Z,3.40
2023-04-04T07:39:47.564Z,3.20
2023-04-04T07:42:14.105Z,3.30
2023-04-04T07:44:40.705Z,3.30
2023-04-04T07:47:10.347Z,2.90
2023-04-04T07:49:37.503Z,3.10
2023-04-04T07:52:04.480Z,3.00
2023-04-04T07:54:31.191Z,3.10
2023-04-04T07:56:57.784Z,3.30
2023-04-04T07:59:24.346Z,3.40
2023-04-04T08:01:51.096Z,3.50
2023-04-04T08:04:17.699Z,3.90
2023-04-04T08:06:44.170Z,4.20
2023-04-04T08:09:10.651Z,4.90
2023-04-04T08:11:37.539Z,6.30
2023-04-04T08:14:04.658Z,6.60
2023-04-04T08:16:31.268Z,7.30
2023-04-04T08:18:59.991Z,7.20
2023-04-04T08:21:26.643Z,8.10
2023-04-04T08:23:53.113Z,8.30
2023-04-04T08:26:19.636Z,8.30
2023-04-04T08:28:46.320Z,8.10
2023-04-04T08:31:12.884Z,8.30
2023-04-04T08:33:47.227Z,7.80
2023-04-04T08:36:14.643Z,7.40
2023-04-04T08:38:41.133Z,8.20
2023-04-04T08:41:07.724Z,10.50
2023-04-04T08:43:35.369Z,10.60
2023-04-04T08:46:04.058Z,11.80
2023-04-04T08:48:31.815Z,11.20
2023-04-04T08:50:59.757Z,12.00
2023-04-04T08:53:26.743Z,14.80
2023-04-04T08:55:58.309Z,16.90
2023-04-04T08:58:24.797Z,18.20
2023-04-04T09:00:55.198Z,18.50
2023-04-04T09:03:24.275Z,18.20
2023-04-04T09:05:50.989Z,17.10
2023-04-04T09:08:18.239Z,16.50
2023-04-04T09:10:45.469Z,16.80
2023-04-04T09:13:16.083Z,17.20
2023-04-04T09:15:54.099Z,16.40
2023-04-04T09:18:20.713Z,16.00
2023-04-04T09:20:47.648Z,16.10
2023-04-04T09:23:20.081Z,15.50
2023-04-04T09:26:00.329Z,15.40
2023-04-04T09:28:30.882Z,15.60
2023-04-04T09:30:59.804Z,16.00
2023-04-04T09:33:26.428Z,15.60
2023-04-04T09:35:59.293Z,15.90
2023-04-04T09:38:26.603Z,15.30
2023-04-04T09:40:54.437Z,15.10
2023-04-04T09:43:22.512Z,15.60
2023-04-04T09:45:49.706Z,15.50
2023-04-04T09:48:33.149Z,15.60
2023-04-04T09:50:59.980Z,16.30
2023-04-04T09:53:27.165Z,16.20
2023-04-04T09:55:55.302Z,15.40
2023-04-04T09:58:24.549Z,14.90
2023-04-04T10:00:52.523Z,15.00
2023-04-04T10:03:21.592Z,14.70
2023-04-04T10:05:48.448Z,14.90
2023-04-04T10:08:18.579Z,15.10
2023-04-04T10:10:46.550Z,14.60
2023-04-04T10:13:14.265Z,14.00
2023-04-04T10:15:44.127Z,14.20
2023-04-04T10:18:11.189Z,13.80
2023-04-04T10:20:37.954Z,13.20
2023-04-04T10:23:05.532Z,13.20
2023-04-04T10:25:32.077Z,12.60
2023-04-04T10:27:58.573Z,12.00
2023-04-04T10:30:25.054Z,11.30
2023-04-04T10:33:02.444Z,10.40
2023-04-04T10:35:29.555Z,9.90
2023-04-04T10:38:00.136Z,9.60
2023-04-04T10:40:28.075Z,8.90
2023-04-04T10:42:55.181Z,8.50
2023-04-04T10:45:22.136Z,8.70
2023-04-04T10:47:49.009Z,8.70
2023-04-04T10:50:15.591Z,8.80
2023-04-04T10:52:45.690Z,8.70
2023-04-04T10:55:13.326Z,8.80
2023-04-04T10:57:41.759Z,9.00
2023-04-04T11:00:10.526Z,9.00
2023-04-04T11:02:46.292Z,8.80
2023-04-04T11:05:20.727Z,8.80
2023-04-04T11:08:00.714Z,8.80
2023-04-04T11:10:37.597Z,8.80
2023-04-04T11:13:22.740Z,8.60
2023-04-04T11:15:57.336Z,8.60
2023-04-04T11:18:34.175Z,8.30
2023-04-04T11:21:01.804Z,8.30
2023-04-04T11:23:38.528Z,8.30
2023-04-04T11:26:07.150Z,8.60
2023-04-04T11:28:33.855Z,8.30
2023-04-04T11:31:19.549Z,8.20
2023-04-04T11:34:15.944Z,8.20
2023-04-04T11:36:44.680Z,8.30
2023-04-04T11:39:15.587Z,8.60
2023-04-04T11:41:49.087Z,8.70
2023-04-04T11:44:16.194Z,8.60
2023-04-04T11:46:43.130Z,8.30
2023-04-04T11:49:10.513Z,8.30
2023-04-04T11:51:38.614Z,8.50
2023-04-04T11:54:06.409Z,8.70
2023-04-04T11:56:38.907Z,8.60
2023-04-04T11:59:11.286Z,8.60
2023-04-04T12:01:39.291Z,8.30
2023-04-04T12:04:05.954Z,8.20
2023-04-04T12:06:38.487Z,8.00
2023-04-04T12:09:05.630Z,8.10
2023-04-04T12:11:36.262Z,8.10
2023-04-04T12:14:02.824Z,8.20
2023-04-04T12:16:30.002Z,8.20
2023-04-04T12:18:57.159Z,8.10
2023-04-04T12:21:24.066Z,8.20
2023-04-04T12:23:50.578Z,8.30
2023-04-04T12:26:17.639Z,8.40
2023-04-04T12:28:45.425Z,8.40
2023-04-04T12:31:15.558Z,8.40
2023-04-04T12:33:42.292Z,8.50
2023-04-04T12:36:08.948Z,8.50
2023-04-04T12:38:40.032Z,8.40
2023-04-04T12:41:08.970Z,8.10
2023-04-04T12:43:41.294Z,8.10
2023-04-04T12:46:08.165Z,8.30
2023-04-04T12:48:36.612Z,8.50
2023-04-04T12:51:04.744Z,8.50
2023-04-04T12:53:32.850Z,8.50
2023-04-04T12:56:02.252Z,8.50
2023-04-04T12:58:28.861Z,8.50
2023-04-04T13:00:55.837Z,8.40
2023-04-04T13:03:23.426Z,8.20
2023-04-04T13:05:50.641Z,8.20
2023-04-04T13:08:17.597Z,8.20
2023-04-04T13:10:59.409Z,8.20
2023-04-04T13:13:32.826Z,8.20
2023-04-04T13:15:59.579Z,8.20
2023-04-04T13:18:26.622Z,8.10
2023-04-04T13:20:54.013Z,8.10
2023-04-04T13:23:21.339Z,8.20
2023-04-04T13:25:47.988Z,8.30
2023-04-04T13:28:14.595Z,8.40
2023-04-04T13:30:46.433Z,8.50
2023-04-04T13:33:12.965Z,8.40
2023-04-04T13:35:40.023Z,8.20
2023-04-04T13:38:06.842Z,8.20
2023-04-04T13:40:33.304Z,8.30
2023-04-04T13:42:59.792Z,8.40
2023-04-04T13:45:26.468Z,8.50
2023-04-04T13:47:52.993Z,8.60
2023-04-04T13:50:19.469Z,8.60
2023-04-04T13:52:45.928Z,8.30
2023-04-04T13:55:13.241Z,8.20
2023-04-04T13:57:39.716Z,8.30
2023-04-04T14:00:06.478Z,8.30
2023-04-04T14:02:32.977Z,8.20
2023-04-04T14:04:59.471Z,8.10
2023-04-04T14:07:26.072Z,8.10
2023-04-04T14:09:52.548Z,8.10
2023-04-04T14:12:19.003Z,8.00
2023-04-04T14:14:45.594Z,8.10
2023-04-04T14:17:12.191Z,8.20
2023-04-04T14:19:39.123Z,8.20
2023-04-04T14:22:06.299Z,8.20
2023-04-04T14:24:32.821Z,8.30
2023-04-04T14:26:59.317Z,8.30
2023-04-04T14:29:26.476Z,8.30
2023-04-04T14:31:53.133Z,8.30
2023-04-04T14:34:19.622Z,8.30
2023-04-04T14:36:46.129Z,8.30
2023-04-04T14:39:12.787Z,8.30
2023-04-04T14:41:39.277Z,8.40
2023-04-04T14:44:06.370Z,8.30
2023-04-04T14:46:34.633Z,8.40
2023-04-04T14:49:02.879Z,8.30
2023-04-04T14:51:29.354Z,8.30
2023-04-04T14:53:56.285Z,8.20
2023-04-04T14:56:23.491Z,8.10
2023-04-04T14:58:50.746Z,8.10
2023-04-04T15:01:17.828Z,8.00
2023-04-04T15:03:44.317Z,8.00
2023-04-04T15:06:10.899Z,8.00
2023-04-04T15:08:37.737Z,8.00
2023-04-04T15:11:04.441Z,8.00
2023-04-04T15:13:31.205Z,8.00
2023-04-04T15:15:59.951Z,8.00
2023-04-04T15:18:26.515Z,8.10
2023-04-04T15:20:53.018Z,8.00
2023-04-04T15:23:19.481Z,7.90
2023-04-04T15:25:45.931Z,7.90
2023-04-04T15:28:12.438Z,7.90
2023-04-04T15:30:39.285Z,8.00
2023-04-04T15:33:06.162Z,8.00
2023-04-04T15:35:32.771Z,8.00
2023-04-04T15:37:59.210Z,7.90
2023-04-04T15:40:25.743Z,7.70
2023-04-04T15:42:52.368Z,7.60
2023-04-04T15:45:18.850Z,7.50
2023-04-04T15:47:45.798Z,7.60
2023-04-04T15:50:12.396Z,7.60
2023-04-04T15:52:39.047Z,7.60
2023-04-04T15:55:10.064Z,7.60
2023-04-04T15:57:36.551Z,7.60
2023-04-04T16:00:03.678Z,7.60
2023-04-04T16:02:31.696Z,7.60
2023-04-04T16:04:58.286Z,7.50
2023-04-04T16:07:24.851Z,7.50
2023-04-04T16:09:51.371Z,7.40
2023-04-04T16:12:17.914Z,7.40
2023-04-04T16:14:44.496Z,7.40
2023-04-04T16:17:11.118Z,7.50
2023-04-04T16:19:37.634Z,7.50
2023-04-04T16:22:05.461Z,7.50
2023-04-04T16:24:32.092Z,7.40
2023-04-04T16:26:58.577Z,7.40
2023-04-04T16:29:25.174Z,7.40
2023-04-04T16:31:52.549Z,7.40
2023-04-04T16:34:19.120Z,7.40
2023-04-04T16:36:45.732Z,7.30
2023-04-04T16:39:12.479Z,7.30
2023-04-04T16:41:40.886Z,7.30
2023-04-04T16:44:08.266Z,7.30
2023-04-04T16:46:34.972Z,7.30
2023-04-04T16:49:01.479Z,7.30
2023-04-04T16:51:28.278Z,7.20
2023-04-04T16:53:54.881Z,7.20
2023-04-04T16:56:21.350Z,7.20
2023-04-04T16:58:47.964Z,7.20
2023-04-04T17:01:20.534Z,7.20
2023-04-04T17:03:47.211Z,7.20
2023-04-04T17:06:13.737Z,7.20
2023-04-04T17:08:42.939Z,7.20
2023-04-04T17:11:09.438Z,7.10
2023-04-04T17:13:35.941Z,7.10
2023-04-04T17:16:02.466Z,7.00
2023-04-04T17:18:29.043Z,7.00
2023-04-04T17:20:55.666Z,6.90
2023-04-04T17:23:22.136Z,6.90
2023-04-04T17:25:48.651Z,6.90
2023-04-04T17:28:15.158Z,6.80
2023-04-04T17:30:41.895Z,6.80
2023-04-04T17:33:08.799Z,6.80
2023-04-04T17:35:35.420Z,6.70
2023-04-04T17:38:01.960Z,6.60
2023-04-04T17:40:28.430Z,6.60
2023-04-04T17:42:54.900Z,6.60
2023-04-04T17:45:21.606Z,6.60
2023-04-04T17:47:48.170Z,6.60
2023-04-04T17:50:14.795Z,6.60
2023-04-04T17:52:41.649Z,6.50
2023-04-04T17:55:08.662Z,6.40
2023-04-04T17:57:35.538Z,6.40
2023-04-04T18:00:02.041Z,6.30
2023-04-04T18:02:28.571Z,6.20
2023-04-04T18:04:56.850Z,6.20
2023-04-04T18:07:23.328Z,6.20
2023-04-04T18:09:49.780Z,6.20
2023-04-04T18:12:17.725Z,6.20
2023-04-04T18:14:44.248Z,6.10
2023-04-04T18:17:10.851Z,6.10
2023-04-04T18:19:39.004Z,6.00
2023-04-04T18:22:06.252Z,5.90
2023-04-04T18:24:32.718Z,5.90
2023-04-04T18:26:59.282Z,5.70
2023-04-04T18:29:26.619Z,5.80
2023-04-04T18:31:53.088Z,5.70
2023-04-04T18:34:19.853Z,5.70
2023-04-04T18:36:49.221Z,5.70
2023-04-04T18:39:17.115Z,5.80
2023-04-04T18:41:44.189Z,5.80
2023-04-04T18:44:10.797Z,5.80
2023-04-04T18:46:38.996Z,5.90
2023-04-04T18:49:05.560Z,5.90
2023-04-04T18:51:32.114Z,5.80
2023-04-04T18:53:58.559Z,5.80
2023-04-04T18:56:26.014Z,5.80
2023-04-04T18:58:52.517Z,5.80
2023-04-04T19:01:19.095Z,5.80
2023-04-04T19:03:51.205Z,5.70
2023-04-04T19:06:17.760Z,5.70
2023-04-04T19:08:44.552Z,5.70
2023-04-04T19:11:11.328Z,5.60
2023-04-04T19:13:37.883Z,5.60
2023-04-04T19:16:04.558Z,5.70
2023-04-04T19:18:31.268Z,5.60
2023-04-04T19:20:58.282Z,5.60
2023-04-04T19:23:24.720Z,5.60
2023-04-04T19:25:51.293Z,5.60
2023-04-04T19:28:17.828Z,5.60
2023-04-04T19:30:48.774Z,5.60
2023-04-04T19:33:16.697Z,5.60
2023-04-04T19:35:48.484Z,5.50
2023-04-04T19:38:20.139Z,5.50
2023-04-04T19:40:47.466Z,5.40
2023-04-04T19:43:18.107Z,5.50
2023-04-04T19:45:54.586Z,5.50
2023-04-04T19:48:36.186Z,5.40
2023-04-04T19:51:14.829Z,5.40
2023-04-04T19:53:42.181Z,5.40
2023-04-04T19:56:09.462Z,5.40
2023-04-04T19:58:36.454Z,5.50
2023-04-04T20:01:03.272Z,5.40
2023-04-04T20:03:32.714Z,5.20
2023-04-04T20:06:12.168Z,5.20
2023-04-04T20:08:38.798Z,5.20
2023-04-04T20:11:06.232Z,5.20
2023-04-04T20:13:36.476Z,5.10
2023-04-04T20:16:04.497Z,5.10
2023-04-04T20:18:32.465Z,5.10
2023-04-04T20:20:58.972Z,5.20
2023-04-04T20:23:28.707Z,5.20
2023-04-04T20:26:04.092Z,5.20
2023-04-04T20:28:31.054Z,5.20
2023-04-04T20:31:00.678Z,5.20
2023-04-04T20:33:39.956Z,5.20
2023-04-04T20:36:06.450Z,5.20
2023-04-04T20:38:33.154Z,5.10
2023-04-04T20:41:00.267Z,5.10
2023-04-04T20:43:28.011Z,5.00
2023-04-04T20:45:55.684Z,4.90
2023-04-04T20:48:31.508Z,4.80
2023-04-04T20:50:57.992Z,4.80
2023-04-04T20:53:27.278Z,4.80
2023-04-04T20:55:54.010Z,4.80
2023-04-04T20:58:28.185Z,4.80
2023-04-04T21:00:56.694Z,4.80
2023-04-04T21:03:23.168Z,4.70
2023-04-04T21:05:49.755Z,4.70
2023-04-04T21:08:19.343Z,4.60
2023-04-04T21:10:50.319Z,4.60
2023-04-04T21:13:21.286Z,4.60
2023-04-04T21:15:48.534Z,4.60
2023-04-04T21:18:22.190Z,4.50
2023-04-04T21:20:53.520Z,4.60
2023-04-04T21:23:29.210Z,4.60
2023-04-04T21:25:56.687Z,4.60
2023-04-04T21:28:41.832Z,4.50
2023-04-04T21:31:17.974Z,4.40
2023-04-04T21:33:45.501Z,4.40
2023-04-04T21:36:32.553Z,4.40
2023-04-04T21:39:00.198Z,4.40
2023-04-04T21:41:28.239Z,4.40
2023-04-04T21:43:55.789Z,4.40
2023-04-04T21:46:26.669Z,4.50
2023-04-04T21:48:53.796Z,4.50
2023-04-04T21:51:20.893Z,4.50
2023-04-04T21:53:48.034Z,4.60
2023-04-04T21:56:15.469Z,4.60
2023-04-04T21:58:41.941Z,4.60
2023-04-04T22:01:08.462Z,4.60
2023-04-04T22:03:37.050Z,4.60
2023-04-04T22:06:03.693Z,4.60
2023-04-04T22:08:30.424Z,4.60
2023-04-04T22:10:58.770Z,4.60
2023-04-04T22:13:30.818Z,4.50
2023-04-04T22:15:58.783Z,4.50
2023-04-04T22:18:33.016Z,4.40
2023-04-04T22:21:03.097Z,4.40
2023-04-04T22:23:35.726Z,4.40
2023-04-04T22:26:11.017Z,4.40
2023-04-04T22:28:38.416Z,4.30
2023-04-04T22:31:05.981Z,4.30
2023-04-04T22:33:33.832Z,4.30
2023-04-04T22:36:01.050Z,4.20
2023-04-04T22:38:28.389Z,4.20
2023-04-04T22:40:55.769Z,4.20
2023-04-04T22:43:22.548Z,4.20
2023-04-04T22:45:49.161Z,4.20
2023-04-04T22:48:15.764Z,4.20
2023-04-04T22:50:42.560Z,4.20
2023-04-04T22:53:12.741Z,4.20
2023-04-04T22:55:39.554Z,4.20
2023-04-04T22:58:06.761Z,4.20
2023-04-04T23:00:33.673Z,4.30
2023-04-04T23:03:01.983Z,4.30
2023-04-04T23:05:28.558Z,4.30
2023-04-04T23:07:55.218Z,4.30
2023-04-04T23:10:21.701Z,4.30
2023-04-04T23:12:48.323Z,4.20
2023-04-04T23:15:14.801Z,4.20
2023-04-04T23:17:41.342Z,4.20
2023-04-04T23:20:09.206Z,4.10
2023-04-04T23:22:36.685Z,4.10
2023-04-04T23:25:04.025Z,4.10
2023-04-04T23:27:30.974Z,4.20
2023-04-04T23:30:00.282Z,4.20
2023-04-04T23:32:27.364Z,4.20
2023-04-04T23:34:53.913Z,4.20
2023-04-04T23:37:20.464Z,4.20
2023-04-04T23:39:47.354Z,4.20
2023-04-04T23:42:13.827Z,4.10
2023-04-04T23:44:40.272Z,4.10
2023-04-04T23:47:06.912Z,4.10
2023-04-04T23:49:33.566Z,4.00
2023-04-04T23:52:00.138Z,3.90
2023-04-04T23:54:26.753Z,3.90
2023-04-04T23:56:53.231Z,3.90
2023-04-04T23:59:19.775Z,3.90
